sensor_id;sensor_type;location;lat;lon;timestamp;pressure;altitude;pressure_sealevel;temperature;humidity
21185;BME280;18176;49.502;11.754;2022-11-25T00:00:19;96920.88;;;9.66;62.06
21185;BME280;18176;49.502;11.754;2022-11-25T00:04:22;96927.03;;;9.78;61.96
21185;BME280;18176;49.502;11.754;2022-11-25T00:08:22;96929.72;;;9.89;62.08
21185;BME280;18176;49.502;11.754;2022-11-25T00:12:22;96919.22;;;9.95;61.74
21185;BME280;18176;49.502;11.754;2022-11-25T00:16:24;96890.56;;;9.80;61.86
21185;BME280;18176;49.502;11.754;2022-11-25T00:20:27;96921.00;;;10.01;61.47
21185;BME280;18176;49.502;11.754;2022-11-25T00:24:28;96923.97;;;10.04;61.59
21185;BME280;18176;49.502;11.754;2022-11-25T00:28:28;96878.81;;;9.76;61.44
21185;BME280;18176;49.502;11.754;2022-11-25T00:32:28;96911.66;;;9.98;61.70
21185;BME280;18176;49.502;11.754;2022-11-25T00:36:34;96930.03;;;10.11;61.37
21185;BME280;18176;49.502;11.754;2022-11-25T00:40:36;96939.50;;;10.30;61.03
21185;BME280;18176;49.502;11.754;2022-11-25T00:44:36;96942.47;;;10.22;61.19
21185;BME280;18176;49.502;11.754;2022-11-25T00:48:35;96951.56;;;10.15;61.12
21185;BME280;18176;49.502;11.754;2022-11-25T00:52:38;96928.94;;;10.01;61.46
21185;BME280;18176;49.502;11.754;2022-11-25T00:56:38;96951.63;;;10.08;61.53
21185;BME280;18176;49.502;11.754;2022-11-25T01:00:38;96951.34;;;10.16;61.47
21185;BME280;18176;49.502;11.754;2022-11-25T01:04:39;96948.38;;;10.24;61.57
21185;BME280;18176;49.502;11.754;2022-11-25T01:08:41;96941.19;;;10.13;61.76
21185;BME280;18176;49.502;11.754;2022-11-25T01:12:41;96965.88;;;10.37;61.38
21185;BME280;18176;49.502;11.754;2022-11-25T01:16:42;96964.06;;;10.37;61.03
21185;BME280;18176;49.502;11.754;2022-11-25T01:20:42;96939.63;;;10.24;61.09
21185;BME280;18176;49.502;11.754;2022-11-25T01:24:44;96959.53;;;10.26;61.06
21185;BME280;18176;49.502;11.754;2022-11-25T01:28:45;96944.53;;;10.20;60.75
21185;BME280;18176;49.502;11.754;2022-11-25T01:32:46;96972.28;;;10.18;60.89
21185;BME280;18176;49.502;11.754;2022-11-25T01:36:46;96966.81;;;10.31;60.45
21185;BME280;18176;49.502;11.754;2022-11-25T01:40:49;96972.09;;;10.31;60.47
21185;BME280;18176;49.502;11.754;2022-11-25T01:45:31;96959.28;;;10.16;60.78
21185;BME280;18176;49.502;11.754;2022-11-25T01:49:37;96942.72;;;9.91;60.91
21185;BME280;18176;49.502;11.754;2022-11-25T01:53:40;96941.22;;;9.95;61.07
21185;BME280;18176;49.502;11.754;2022-11-25T01:57:52;96961.34;;;10.14;60.97
21185;BME280;18176;49.502;11.754;2022-11-25T02:01:57;96951.63;;;10.08;60.92
21185;BME280;18176;49.502;11.754;2022-11-25T02:06:06;96952.00;;;10.12;60.87
21185;BME280;18176;49.502;11.754;2022-11-25T02:10:14;96941.84;;;10.09;61.08
21185;BME280;18176;49.502;11.754;2022-11-25T02:14:21;96946.72;;;10.12;60.82
21185;BME280;18176;49.502;11.754;2022-11-25T02:18:22;96961.41;;;10.08;60.91
21185;BME280;18176;49.502;11.754;2022-11-25T02:22:40;96918.63;;;9.81;61.20
21185;BME280;18176;49.502;11.754;2022-11-25T02:26:46;96947.88;;;10.16;61.26
21185;BME280;18176;49.502;11.754;2022-11-25T02:30:47;96933.13;;;9.90;60.92
21185;BME280;18176;49.502;11.754;2022-11-25T02:34:48;96948.84;;;10.03;61.06
21185;BME280;18176;49.502;11.754;2022-11-25T02:38:54;96936.41;;;9.92;61.20
21185;BME280;18176;49.502;11.754;2022-11-25T02:43:00;96942.97;;;10.01;60.89
21185;BME280;18176;49.502;11.754;2022-11-25T02:47:00;96931.09;;;9.92;61.02
21185;BME280;18176;49.502;11.754;2022-11-25T02:51:01;96935.84;;;9.72;60.96
21185;BME280;18176;49.502;11.754;2022-11-25T02:55:02;96920.50;;;9.62;60.53
21185;BME280;18176;49.502;11.754;2022-11-25T02:59:05;96943.66;;;9.67;60.82
21185;BME280;18176;49.502;11.754;2022-11-25T03:03:07;96945.69;;;9.65;60.81
21185;BME280;18176;49.502;11.754;2022-11-25T03:07:07;96948.34;;;9.65;60.82
21185;BME280;18176;49.502;11.754;2022-11-25T03:11:07;96943.19;;;9.70;60.85
21185;BME280;18176;49.502;11.754;2022-11-25T03:15:11;96953.22;;;9.50;60.90
21185;BME280;18176;49.502;11.754;2022-11-25T03:19:11;96968.19;;;9.56;61.14
21185;BME280;18176;49.502;11.754;2022-11-25T03:23:11;96954.84;;;9.51;61.13
21185;BME280;18176;49.502;11.754;2022-11-25T03:27:12;96964.09;;;9.60;61.00
21185;BME280;18176;49.502;11.754;2022-11-25T03:31:14;96944.41;;;9.38;61.60
21185;BME280;18176;49.502;11.754;2022-11-25T03:35:16;96968.19;;;9.56;61.70
21185;BME280;18176;49.502;11.754;2022-11-25T03:39:16;96966.06;;;9.64;61.77
21185;BME280;18176;49.502;11.754;2022-11-25T03:43:17;96935.53;;;9.50;61.85
21185;BME280;18176;49.502;11.754;2022-11-25T03:47:21;96954.84;;;9.51;61.69
21185;BME280;18176;49.502;11.754;2022-11-25T03:51:21;96963.50;;;9.40;62.47
21185;BME280;18176;49.502;11.754;2022-11-25T03:55:22;96958.66;;;9.55;62.19
21185;BME280;18176;49.502;11.754;2022-11-25T03:59:24;96968.56;;;9.59;61.95
21185;BME280;18176;49.502;11.754;2022-11-25T04:03:27;96962.94;;;9.19;62.96
21185;BME280;18176;49.502;11.754;2022-11-25T04:07:28;96941.19;;;8.99;62.59
21185;BME280;18176;49.502;11.754;2022-11-25T04:11:28;96982.91;;;9.34;62.96
21185;BME280;18176;49.502;11.754;2022-11-25T04:15:44;96981.34;;;9.08;63.38
21185;BME280;18176;49.502;11.754;2022-11-25T04:19:49;96957.06;;;8.99;63.40
21185;BME280;18176;49.502;11.754;2022-11-25T04:23:49;96986.44;;;9.28;63.11
21185;BME280;18176;49.502;11.754;2022-11-25T04:27:50;96987.31;;;9.22;63.13
21185;BME280;18176;49.502;11.754;2022-11-25T04:31:57;96989.81;;;9.53;62.38
21185;BME280;18176;49.502;11.754;2022-11-25T04:36:00;96976.38;;;9.54;61.77
21185;BME280;18176;49.502;11.754;2022-11-25T04:40:00;96973.66;;;9.43;62.25
21185;BME280;18176;49.502;11.754;2022-11-25T04:44:03;96958.88;;;9.17;62.54
21185;BME280;18176;49.502;11.754;2022-11-25T04:48:05;96978.50;;;9.46;62.38
21185;BME280;18176;49.502;11.754;2022-11-25T04:52:09;96961.31;;;9.55;61.97
21185;BME280;18176;49.502;11.754;2022-11-25T04:56:17;96978.34;;;9.59;62.17
21185;BME280;18176;49.502;11.754;2022-11-25T05:00:21;96962.34;;;9.36;62.90
21185;BME280;18176;49.502;11.754;2022-11-25T05:04:22;96971.38;;;9.28;63.41
21185;BME280;18176;49.502;11.754;2022-11-25T05:08:26;96951.63;;;9.12;63.59
21185;BME280;18176;49.502;11.754;2022-11-25T05:12:28;96937.97;;;9.15;63.59
21185;BME280;18176;49.502;11.754;2022-11-25T05:16:32;96948.84;;;9.44;63.07
21185;BME280;18176;49.502;11.754;2022-11-25T05:20:33;96963.97;;;9.37;63.30
21185;BME280;18176;49.502;11.754;2022-11-25T05:24:35;96966.03;;;9.35;63.56
21185;BME280;18176;49.502;11.754;2022-11-25T05:28:36;96963.00;;;9.13;64.08
21185;BME280;18176;49.502;11.754;2022-11-25T05:32:36;96970.72;;;9.33;63.63
21185;BME280;18176;49.502;11.754;2022-11-25T05:36:40;96973.06;;;9.59;62.80
21185;BME280;18176;49.502;11.754;2022-11-25T05:40:44;96954.97;;;9.56;62.68
21185;BME280;18176;49.502;11.754;2022-11-25T05:44:46;96974.81;;;9.47;62.84
21185;BME280;18176;49.502;11.754;2022-11-25T05:48:46;96968.06;;;9.69;62.29
21185;BME280;18176;49.502;11.754;2022-11-25T05:52:47;96983.06;;;9.57;62.57
21185;BME280;18176;49.502;11.754;2022-11-25T05:56:50;96988.34;;;9.39;63.03
21185;BME280;18176;49.502;11.754;2022-11-25T06:01:19;96989.94;;;9.40;63.45
21185;BME280;18176;49.502;11.754;2022-11-25T06:05:20;96983.81;;;9.46;63.49
21185;BME280;18176;49.502;11.754;2022-11-25T06:09:20;96997.88;;;9.40;63.25
21185;BME280;18176;49.502;11.754;2022-11-25T06:13:24;96992.16;;;9.25;63.78
21185;BME280;18176;49.502;11.754;2022-11-25T06:17:25;96977.03;;;8.95;64.52
21185;BME280;18176;49.502;11.754;2022-11-25T06:21:41;96948.03;;;9.07;63.54
21185;BME280;18176;49.502;11.754;2022-11-25T06:25:43;96986.44;;;9.28;63.46
21185;BME280;18176;49.502;11.754;2022-11-25T06:29:46;96991.66;;;9.52;62.55
21185;BME280;18176;49.502;11.754;2022-11-25T06:33:48;97007.28;;;9.54;62.62
21185;BME280;18176;49.502;11.754;2022-11-25T06:37:49;97004.06;;;9.52;62.18
21185;BME280;18176;49.502;11.754;2022-11-25T06:41:49;97012.59;;;9.54;62.11
21185;BME280;18176;49.502;11.754;2022-11-25T06:45:52;96991.59;;;9.41;61.89
21185;BME280;18176;49.502;11.754;2022-11-25T06:49:52;97002.25;;;9.34;62.28
21185;BME280;18176;49.502;11.754;2022-11-25T06:53:52;97004.38;;;9.44;62.16
21185;BME280;18176;49.502;11.754;2022-11-25T06:57:53;96965.88;;;9.30;61.74
21185;BME280;18176;49.502;11.754;2022-11-25T07:02:15;97010.69;;;9.43;62.07
21185;BME280;18176;49.502;11.754;2022-11-25T07:06:17;96981.75;;;9.48;61.83
21185;BME280;18176;49.502;11.754;2022-11-25T07:10:18;97008.75;;;9.68;61.03
21185;BME280;18176;49.502;11.754;2022-11-25T07:14:20;96978.22;;;9.36;61.32
21185;BME280;18176;49.502;11.754;2022-11-25T07:18:22;97019.34;;;9.68;61.39
21185;BME280;18176;49.502;11.754;2022-11-25T07:22:23;97014.34;;;9.42;61.67
21185;BME280;18176;49.502;11.754;2022-11-25T07:26:26;97028.31;;;9.67;61.25
21185;BME280;18176;49.502;11.754;2022-11-25T07:30:27;97031.91;;;9.54;61.15
21185;BME280;18176;49.502;11.754;2022-11-25T07:34:51;97041.66;;;9.36;61.87
21185;BME280;18176;49.502;11.754;2022-11-25T07:39:02;97035.94;;;9.39;61.39
21185;BME280;18176;49.502;11.754;2022-11-25T07:43:15;97060.94;;;9.43;61.59
21185;BME280;18176;49.502;11.754;2022-11-25T07:47:15;97059.91;;;9.62;60.80
21185;BME280;18176;49.502;11.754;2022-11-25T07:51:21;96995.47;;;9.20;61.27
21185;BME280;18176;49.502;11.754;2022-11-25T07:55:21;97071.94;;;9.58;61.09
21185;BME280;18176;49.502;11.754;2022-11-25T07:59:25;97052.22;;;9.17;61.59
21185;BME280;18176;49.502;11.754;2022-11-25T08:03:56;97078.44;;;8.94;62.65
21185;BME280;18176;49.502;11.754;2022-11-25T08:08:01;97026.88;;;9.10;61.71
21185;BME280;18176;49.502;11.754;2022-11-25T08:12:43;96859.28;;;7.89;61.74
21185;BME280;18176;49.502;11.754;2022-11-25T08:16:44;96879.84;;;7.49;63.52
21185;BME280;18176;49.502;11.754;2022-11-25T08:20:48;96897.66;;;7.85;63.12
21185;BME280;18176;49.502;11.754;2022-11-25T08:24:54;97046.03;;;9.05;62.08
21185;BME280;18176;49.502;11.754;2022-11-25T08:28:59;96904.81;;;8.34;61.75
21185;BME280;18176;49.502;11.754;2022-11-25T08:33:01;96877.25;;;8.30;61.34
21185;BME280;18176;49.502;11.754;2022-11-25T08:37:10;96886.50;;;8.39;60.98
21185;BME280;18176;49.502;11.754;2022-11-25T08:41:32;97104.00;;;9.86;60.59
21185;BME280;18176;49.502;11.754;2022-11-25T08:45:34;96880.25;;;8.58;60.46
21185;BME280;18176;49.502;11.754;2022-11-25T08:49:38;97059.31;;;9.78;60.62
21185;BME280;18176;49.502;11.754;2022-11-25T08:53:46;97056.94;;;9.88;60.26
21185;BME280;18176;49.502;11.754;2022-11-25T08:58:06;96890.97;;;8.81;60.69
21185;BME280;18176;49.502;11.754;2022-11-25T09:02:22;97063.31;;;10.35;60.28
21185;BME280;18176;49.502;11.754;2022-11-25T09:06:27;97012.03;;;10.29;59.04
21185;BME280;18176;49.502;11.754;2022-11-25T09:10:32;97038.47;;;10.00;59.00
21185;BME280;18176;49.502;11.754;2022-11-25T09:14:36;97087.19;;;10.17;59.66
21185;BME280;18176;49.502;11.754;2022-11-25T09:18:43;96973.50;;;9.56;60.25
21185;BME280;18176;49.502;11.754;2022-11-25T09:22:53;96954.09;;;9.62;59.44
21185;BME280;18176;49.502;11.754;2022-11-25T09:26:59;96900.94;;;9.34;59.53
21185;BME280;18176;49.502;11.754;2022-11-25T09:31:26;96954.25;;;9.67;59.10
21185;BME280;18176;49.502;11.754;2022-11-25T09:35:28;96954.25;;;9.31;59.22
21185;BME280;18176;49.502;11.754;2022-11-25T09:39:53;97108.03;;;10.73;59.41
21185;BME280;18176;49.502;11.754;2022-11-25T09:44:29;96889.34;;;9.16;59.04
21185;BME280;18176;49.502;11.754;2022-11-25T09:49:02;97106.31;;;10.90;59.22
21185;BME280;18176;49.502;11.754;2022-11-25T09:53:41;97014.00;;;10.87;57.52
21185;BME280;18176;49.502;11.754;2022-11-25T09:58:05;96978.63;;;10.70;57.40
21185;BME280;18176;49.502;11.754;2022-11-25T10:02:28;97059.44;;;11.48;56.78
21185;BME280;18176;49.502;11.754;2022-11-25T10:06:45;97102.22;;;12.38;54.97
21185;BME280;18176;49.502;11.754;2022-11-25T10:11:11;96993.63;;;11.85;55.09
21185;BME280;18176;49.502;11.754;2022-11-25T10:15:19;97108.34;;;12.66;54.08
21185;BME280;18176;49.502;11.754;2022-11-25T10:19:39;97108.13;;;12.85;54.24
21185;BME280;18176;49.502;11.754;2022-11-25T10:23:45;97082.06;;;12.53;54.37
21185;BME280;18176;49.502;11.754;2022-11-25T10:27:50;97093.09;;;12.62;54.35
21185;BME280;18176;49.502;11.754;2022-11-25T10:32:08;97082.97;;;12.59;54.02
21185;BME280;18176;49.502;11.754;2022-11-25T10:36:15;97073.88;;;13.16;53.78
21185;BME280;18176;49.502;11.754;2022-11-25T10:40:20;97066.69;;;13.72;52.60
21185;BME280;18176;49.502;11.754;2022-11-25T10:44:26;97019.78;;;14.14;51.30
21185;BME280;18176;49.502;11.754;2022-11-25T10:48:52;97010.28;;;14.23;50.31
21185;BME280;18176;49.502;11.754;2022-11-25T10:52:58;97070.41;;;14.14;51.33
21185;BME280;18176;49.502;11.754;2022-11-25T10:57:19;97053.81;;;13.85;50.82
21185;BME280;18176;49.502;11.754;2022-11-25T11:01:43;96938.09;;;12.78;52.58
21185;BME280;18176;49.502;11.754;2022-11-25T11:05:55;96870.81;;;12.23;53.08
21185;BME280;18176;49.502;11.754;2022-11-25T11:10:19;97053.44;;;13.77;52.69
21185;BME280;18176;49.502;11.754;2022-11-25T11:14:25;97052.84;;;14.13;52.31
21185;BME280;18176;49.502;11.754;2022-11-25T11:18:37;97027.94;;;14.77;51.14
21185;BME280;18176;49.502;11.754;2022-11-25T11:22:48;97037.06;;;15.18;49.85
21185;BME280;18176;49.502;11.754;2022-11-25T11:27:03;97038.88;;;15.13;49.49
21185;BME280;18176;49.502;11.754;2022-11-25T11:31:29;97011.72;;;14.09;51.32
21185;BME280;18176;49.502;11.754;2022-11-25T11:35:56;97053.19;;;14.43;51.25
21185;BME280;18176;49.502;11.754;2022-11-25T11:40:24;97022.44;;;14.14;51.65
21185;BME280;18176;49.502;11.754;2022-11-25T11:44:39;97056.66;;;14.22;51.97
21185;BME280;18176;49.502;11.754;2022-11-25T11:48:59;97044.59;;;14.36;51.31
21185;BME280;18176;49.502;11.754;2022-11-25T11:53:12;96990.38;;;14.04;51.38
21185;BME280;18176;49.502;11.754;2022-11-25T11:57:29;97045.03;;;13.85;52.36
21185;BME280;18176;49.502;11.754;2022-11-25T12:01:52;97012.31;;;12.96;54.25
21185;BME280;18176;49.502;11.754;2022-11-25T12:06:21;96983.97;;;13.40;52.80
21185;BME280;18176;49.502;11.754;2022-11-25T12:10:59;97022.97;;;13.29;53.64
21185;BME280;18176;49.502;11.754;2022-11-25T12:15:57;97022.47;;;13.71;52.56
21185;BME280;18176;49.502;11.754;2022-11-25T12:26:10;96924.88;;;13.16;52.12
21185;BME280;18176;49.502;11.754;2022-11-25T12:31:21;96942.88;;;13.31;52.79
21185;BME280;18176;49.502;11.754;2022-11-25T12:41:04;96831.22;;;12.38;52.95
21185;BME280;18176;49.502;11.754;2022-11-25T12:45:28;97004.38;;;13.13;54.00
21185;BME280;18176;49.502;11.754;2022-11-25T12:49:42;97066.25;;;13.58;53.86
21185;BME280;18176;49.502;11.754;2022-11-25T12:53:49;97063.09;;;14.26;52.82
21185;BME280;18176;49.502;11.754;2022-11-25T12:58:37;97066.75;;;14.42;52.26
21185;BME280;18176;49.502;11.754;2022-11-25T13:03:33;97048.66;;;14.70;51.20
21185;BME280;18176;49.502;11.754;2022-11-25T13:07:48;97054.47;;;13.97;51.93
21185;BME280;18176;49.502;11.754;2022-11-25T13:12:11;97003.88;;;13.32;52.87
21185;BME280;18176;49.502;11.754;2022-11-25T13:16:22;97074.88;;;13.87;52.53
21185;BME280;18176;49.502;11.754;2022-11-25T13:20:47;97074.41;;;13.90;52.69
21185;BME280;18176;49.502;11.754;2022-11-25T13:24:49;97032.94;;;13.56;52.68
21185;BME280;18176;49.502;11.754;2022-11-25T13:28:50;97048.63;;;13.74;52.89
21185;BME280;18176;49.502;11.754;2022-11-25T13:32:53;97065.06;;;13.71;52.91
21185;BME280;18176;49.502;11.754;2022-11-25T13:36:56;97055.41;;;13.65;52.64
21185;BME280;18176;49.502;11.754;2022-11-25T13:40:59;97084.34;;;13.23;53.80
21185;BME280;18176;49.502;11.754;2022-11-25T13:45:00;97079.84;;;13.23;54.24
21185;BME280;18176;49.502;11.754;2022-11-25T13:49:22;97076.44;;;13.11;53.74
21185;BME280;18176;49.502;11.754;2022-11-25T13:53:31;97070.25;;;12.94;54.18
21185;BME280;18176;49.502;11.754;2022-11-25T13:57:37;97057.38;;;12.86;54.05
21185;BME280;18176;49.502;11.754;2022-11-25T14:01:51;97071.84;;;12.62;54.38
21185;BME280;18176;49.502;11.754;2022-11-25T14:06:04;97120.31;;;12.97;54.81
21185;BME280;18176;49.502;11.754;2022-11-25T14:10:40;97105.84;;;13.05;54.47
21185;BME280;18176;49.502;11.754;2022-11-25T14:15:16;97107.34;;;12.84;54.87
21185;BME280;18176;49.502;11.754;2022-11-25T14:20:08;97121.50;;;12.73;55.56
21185;BME280;18176;49.502;11.754;2022-11-25T14:24:28;97138.47;;;13.00;54.82
21185;BME280;18176;49.502;11.754;2022-11-25T14:28:35;97135.00;;;13.00;54.89
21185;BME280;18176;49.502;11.754;2022-11-25T14:32:46;97091.38;;;12.84;54.65
21185;BME280;18176;49.502;11.754;2022-11-25T14:36:54;97127.97;;;13.05;54.72
21185;BME280;18176;49.502;11.754;2022-11-25T14:41:04;97151.59;;;13.18;54.67
21185;BME280;18176;49.502;11.754;2022-11-25T14:45:21;97149.31;;;13.27;54.46
21185;BME280;18176;49.502;11.754;2022-11-25T14:49:23;97153.69;;;13.16;54.59
21185;BME280;18176;49.502;11.754;2022-11-25T14:53:46;97156.25;;;13.45;54.38
21185;BME280;18176;49.502;11.754;2022-11-25T14:57:50;97156.03;;;13.29;54.49
21185;BME280;18176;49.502;11.754;2022-11-25T15:01:54;97151.34;;;13.36;54.20
21185;BME280;18176;49.502;11.754;2022-11-25T15:05:56;97156.16;;;13.06;55.41
21185;BME280;18176;49.502;11.754;2022-11-25T15:09:56;97162.53;;;13.05;55.90
21185;BME280;18176;49.502;11.754;2022-11-25T15:14:03;97162.97;;;13.02;56.17
21185;BME280;18176;49.502;11.754;2022-11-25T15:18:05;97169.59;;;13.00;56.22
21185;BME280;18176;49.502;11.754;2022-11-25T15:22:06;97172.97;;;12.95;56.64
21185;BME280;18176;49.502;11.754;2022-11-25T15:26:22;97166.97;;;12.88;56.92
21185;BME280;18176;49.502;11.754;2022-11-25T15:30:27;97172.66;;;12.80;57.46
21185;BME280;18176;49.502;11.754;2022-11-25T15:34:29;97157.59;;;12.57;57.73
21185;BME280;18176;49.502;11.754;2022-11-25T15:38:39;97165.38;;;12.59;57.69
21185;BME280;18176;49.502;11.754;2022-11-25T15:42:41;97189.47;;;12.69;58.06
21185;BME280;18176;49.502;11.754;2022-11-25T15:46:53;97164.31;;;12.60;58.28
21185;BME280;18176;49.502;11.754;2022-11-25T15:51:01;97192.91;;;12.81;57.67
21185;BME280;18176;49.502;11.754;2022-11-25T15:55:06;97195.00;;;12.79;57.79
21185;BME280;18176;49.502;11.754;2022-11-25T15:59:41;97199.19;;;12.75;58.08
21185;BME280;18176;49.502;11.754;2022-11-25T16:03:48;97161.84;;;12.70;57.80
21185;BME280;18176;49.502;11.754;2022-11-25T16:08:23;97200.63;;;12.83;58.04
21185;BME280;18176;49.502;11.754;2022-11-25T16:12:24;97203.06;;;12.84;58.00
21185;BME280;18176;49.502;11.754;2022-11-25T16:16:27;97156.22;;;12.55;57.97
21185;BME280;18176;49.502;11.754;2022-11-25T16:20:31;97218.50;;;12.99;57.61
21185;BME280;18176;49.502;11.754;2022-11-25T16:24:39;97215.06;;;12.98;57.47
21185;BME280;18176;49.502;11.754;2022-11-25T16:28:49;97224.00;;;12.81;58.29
21185;BME280;18176;49.502;11.754;2022-11-25T16:32:50;97227.22;;;12.83;58.39
21185;BME280;18176;49.502;11.754;2022-11-25T16:36:53;97231.28;;;12.85;58.46
21185;BME280;18176;49.502;11.754;2022-11-25T16:40:53;97238.88;;;12.93;58.22
21185;BME280;18176;49.502;11.754;2022-11-25T16:44:53;97240.63;;;12.88;58.49
21185;BME280;18176;49.502;11.754;2022-11-25T16:48:53;97251.09;;;12.78;59.28
21185;BME280;18176;49.502;11.754;2022-11-25T16:52:56;97249.91;;;12.74;59.21
21185;BME280;18176;49.502;11.754;2022-11-25T16:56:57;97238.97;;;12.70;59.10
21185;BME280;18176;49.502;11.754;2022-11-25T17:00:58;97239.88;;;12.64;59.55
21185;BME280;18176;49.502;11.754;2022-11-25T17:05:12;97239.66;;;12.65;59.46
21185;BME280;18176;49.502;11.754;2022-11-25T17:09:16;97255.09;;;12.80;59.32
21185;BME280;18176;49.502;11.754;2022-11-25T17:13:20;97238.16;;;12.58;59.59
21185;BME280;18176;49.502;11.754;2022-11-25T17:17:23;97266.34;;;12.71;59.53
21185;BME280;18176;49.502;11.754;2022-11-25T17:21:27;97254.69;;;12.60;59.89
21185;BME280;18176;49.502;11.754;2022-11-25T17:25:32;97288.06;;;12.79;59.81
21185;BME280;18176;49.502;11.754;2022-11-25T17:29:37;97278.69;;;12.88;59.42
21185;BME280;18176;49.502;11.754;2022-11-25T17:33:38;97288.84;;;12.91;59.12
21185;BME280;18176;49.502;11.754;2022-11-25T17:37:42;97286.22;;;12.80;59.67
21185;BME280;18176;49.502;11.754;2022-11-25T17:41:47;97310.13;;;12.91;59.65
21185;BME280;18176;49.502;11.754;2022-11-25T17:45:47;97319.50;;;12.94;59.98
21185;BME280;18176;49.502;11.754;2022-11-25T17:49:48;97322.84;;;12.89;60.17
21185;BME280;18176;49.502;11.754;2022-11-25T17:53:49;97328.38;;;12.99;59.81
21185;BME280;18176;49.502;11.754;2022-11-25T17:57:53;97333.13;;;13.09;59.72
21185;BME280;18176;49.502;11.754;2022-11-25T18:01:53;97336.47;;;13.04;59.74
21185;BME280;18176;49.502;11.754;2022-11-25T18:05:55;97335.06;;;13.13;59.88
21185;BME280;18176;49.502;11.754;2022-11-25T18:09:55;97347.44;;;13.08;60.12
21185;BME280;18176;49.502;11.754;2022-11-25T18:13:58;97328.38;;;12.99;59.92
21185;BME280;18176;49.502;11.754;2022-11-25T18:18:02;97349.41;;;13.12;60.29
21185;BME280;18176;49.502;11.754;2022-11-25T18:22:12;97339.94;;;13.16;60.29
21185;BME280;18176;49.502;11.754;2022-11-25T18:26:12;97339.91;;;13.28;60.68
21185;BME280;18176;49.502;11.754;2022-11-25T18:30:21;97358.38;;;13.34;60.90
21185;BME280;18176;49.502;11.754;2022-11-25T18:34:23;97360.75;;;13.48;60.83
21185;BME280;18176;49.502;11.754;2022-11-25T18:38:24;97372.66;;;13.57;60.64
21185;BME280;18176;49.502;11.754;2022-11-25T18:42:30;97364.19;;;13.60;60.78
21185;BME280;18176;49.502;11.754;2022-11-25T18:46:36;97373.16;;;13.54;61.21
21185;BME280;18176;49.502;11.754;2022-11-25T18:50:37;97387.50;;;13.53;61.43
21185;BME280;18176;49.502;11.754;2022-11-25T18:54:37;97391.78;;;13.54;61.65
21185;BME280;18176;49.502;11.754;2022-11-25T18:58:38;97381.50;;;13.46;61.58
21185;BME280;18176;49.502;11.754;2022-11-25T19:02:41;97380.00;;;13.38;61.66
21185;BME280;18176;49.502;11.754;2022-11-25T19:06:42;97401.66;;;13.42;62.46
21185;BME280;18176;49.502;11.754;2022-11-25T19:10:45;97402.38;;;13.25;62.09
21185;BME280;18176;49.502;11.754;2022-11-25T19:14:46;97410.38;;;13.25;62.04
21185;BME280;18176;49.502;11.754;2022-11-25T19:18:51;97392.56;;;13.26;61.45
21185;BME280;18176;49.502;11.754;2022-11-25T19:22:51;97428.19;;;13.65;61.08
21185;BME280;18176;49.502;11.754;2022-11-25T19:26:57;97432.00;;;13.69;60.86
21185;BME280;18176;49.502;11.754;2022-11-25T19:31:00;97375.78;;;13.25;60.49
21185;BME280;18176;49.502;11.754;2022-11-25T19:35:07;97435.13;;;13.66;60.48
21185;BME280;18176;49.502;11.754;2022-11-25T19:39:15;97420.69;;;13.62;60.34
21185;BME280;18176;49.502;11.754;2022-11-25T19:43:16;97449.00;;;13.68;60.58
21185;BME280;18176;49.502;11.754;2022-11-25T19:47:22;97434.81;;;13.62;60.31
21185;BME280;18176;49.502;11.754;2022-11-25T19:51:29;97475.19;;;13.71;60.54
21185;BME280;18176;49.502;11.754;2022-11-25T19:55:31;97465.13;;;13.61;60.46
21185;BME280;18176;49.502;11.754;2022-11-25T19:59:31;97493.94;;;13.76;60.28
21185;BME280;18176;49.502;11.754;2022-11-25T20:03:32;97494.97;;;13.75;60.04
21185;BME280;18176;49.502;11.754;2022-11-25T20:07:37;97499.19;;;13.99;59.42
21185;BME280;18176;49.502;11.754;2022-11-25T20:11:38;97518.66;;;13.99;59.72
21185;BME280;18176;49.502;11.754;2022-11-25T20:15:39;97494.88;;;13.70;59.57
21185;BME280;18176;49.502;11.754;2022-11-25T20:19:40;97489.81;;;13.57;59.77
21185;BME280;18176;49.502;11.754;2022-11-25T20:23:43;97525.88;;;13.76;59.61
21185;BME280;18176;49.502;11.754;2022-11-25T20:27:46;97530.66;;;13.74;60.10
21185;BME280;18176;49.502;11.754;2022-11-25T20:31:46;97543.28;;;13.67;60.20
21185;BME280;18176;49.502;11.754;2022-11-25T20:35:51;97485.69;;;13.14;60.80
21185;BME280;18176;49.502;11.754;2022-11-25T20:39:57;97501.56;;;13.21;61.00
21185;BME280;18176;49.502;11.754;2022-11-25T20:43:59;97535.75;;;13.64;60.25
21185;BME280;18176;49.502;11.754;2022-11-25T20:48:00;97501.63;;;13.49;59.90
21185;BME280;18176;49.502;11.754;2022-11-25T20:52:04;97491.91;;;13.55;59.57
21185;BME280;18176;49.502;11.754;2022-11-25T20:56:09;97521.75;;;13.57;59.99
21185;BME280;18176;49.502;11.754;2022-11-25T21:00:19;97531.50;;;13.63;59.99
21185;BME280;18176;49.502;11.754;2022-11-25T21:04:20;97574.25;;;13.96;59.31
21185;BME280;18176;49.502;11.754;2022-11-25T21:08:24;97530.53;;;13.69;59.91
21185;BME280;18176;49.502;11.754;2022-11-25T21:12:28;97562.09;;;13.88;59.94
21185;BME280;18176;49.502;11.754;2022-11-25T21:16:30;97586.06;;;14.00;59.62
21185;BME280;18176;49.502;11.754;2022-11-25T21:20:31;97557.28;;;13.62;60.09
21185;BME280;18176;49.502;11.754;2022-11-25T21:24:38;97543.44;;;13.49;60.17
21185;BME280;18176;49.502;11.754;2022-11-25T21:28:47;97562.06;;;13.25;61.36
21185;BME280;18176;49.502;11.754;2022-11-25T21:32:50;97534.75;;;13.18;61.16
21185;BME280;18176;49.502;11.754;2022-11-25T21:36:53;97577.34;;;13.42;60.99
21185;BME280;18176;49.502;11.754;2022-11-25T21:40:57;97618.06;;;13.77;61.05
21185;BME280;18176;49.502;11.754;2022-11-25T21:45:02;97576.06;;;13.32;60.99
21185;BME280;18176;49.502;11.754;2022-11-25T21:49:09;97565.00;;;12.94;62.44